sensor_id;sensor_type;location;lat;lon;timestamp;pressure;altitude;pressure_sealevel;temperature;humidity
41078;BME280;26823;42.662;23.352;2023-07-08T00:00:13;95092.47;;;19.18;85.63
41078;BME280;26823;42.662;23.352;2023-07-08T00:02:40;95075.53;;;19.07;85.85
41078;BME280;26823;42.662;23.352;2023-07-08T00:05:08;95098.41;;;19.20;84.98
41078;BME280;26823;42.662;23.352;2023-07-08T00:07:34;95086.19;;;19.09;85.56
41078;BME280;26823;42.662;23.352;2023-07-08T00:10:00;95078.63;;;19.05;85.52
41078;BME280;26823;42.662;23.352;2023-07-08T00:12:25;95076.81;;;19.10;85.41
41078;BME280;26823;42.662;23.352;2023-07-08T00:14:50;95070.56;;;19.00;85.53
41078;BME280;26823;42.662;23.352;2023-07-08T00:17:16;95038.97;;;18.85;85.74
41078;BME280;26823;42.662;23.352;2023-07-08T00:19:41;95070.41;;;19.05;85.77
41078;BME280;26823;42.662;23.352;2023-07-08T00:22:13;95072.47;;;19.09;85.57
41078;BME280;26823;42.662;23.352;2023-07-08T00:24:41;95077.63;;;19.10;85.10
41078;BME280;26823;42.662;23.352;2023-07-08T00:27:10;95075.69;;;19.11;85.53
41078;BME280;26823;42.662;23.352;2023-07-08T00:29:36;95036.88;;;18.91;85.16
41078;BME280;26823;42.662;23.352;2023-07-08T00:32:01;95065.69;;;19.15;84.37
41078;BME280;26823;42.662;23.352;2023-07-08T00:34:27;95059.19;;;19.28;83.57
41078;BME280;26823;42.662;23.352;2023-07-08T00:36:52;95061.94;;;19.28;82.99
41078;BME280;26823;42.662;23.352;2023-07-08T00:39:17;95052.44;;;19.26;83.71
41078;BME280;26823;42.662;23.352;2023-07-08T00:41:43;95051.44;;;19.30;83.51
41078;BME280;26823;42.662;23.352;2023-07-08T00:44:12;95054.47;;;19.37;82.88
41078;BME280;26823;42.662;23.352;2023-07-08T00:47:04;95043.03;;;19.35;82.92
41078;BME280;26823;42.662;23.352;2023-07-08T00:49:49;95055.72;;;19.49;83.31
41078;BME280;26823;42.662;23.352;2023-07-08T00:54:45;95063.84;;;19.36;83.22
41078;BME280;26823;42.662;23.352;2023-07-08T00:57:11;95048.53;;;19.27;83.41
41078;BME280;26823;42.662;23.352;2023-07-08T00:59:41;95060.34;;;19.27;83.56
41078;BME280;26823;42.662;23.352;2023-07-08T01:02:11;95063.41;;;19.26;84.43
41078;BME280;26823;42.662;23.352;2023-07-08T01:07:08;95061.63;;;19.21;83.50
41078;BME280;26823;42.662;23.352;2023-07-08T01:09:37;95040.88;;;19.11;84.46
41078;BME280;26823;42.662;23.352;2023-07-08T01:12:09;95037.94;;;19.16;84.51
41078;BME280;26823;42.662;23.352;2023-07-08T01:14:37;95026.81;;;19.13;84.20
41078;BME280;26823;42.662;23.352;2023-07-08T01:17:04;95043.91;;;19.18;83.60
41078;BME280;26823;42.662;23.352;2023-07-08T01:19:30;95035.03;;;19.13;83.75
41078;BME280;26823;42.662;23.352;2023-07-08T01:22:05;95038.75;;;19.17;83.98
41078;BME280;26823;42.662;23.352;2023-07-08T01:24:33;95043.22;;;19.30;83.50
41078;BME280;26823;42.662;23.352;2023-07-08T01:27:01;95038.72;;;19.26;83.08
41078;BME280;26823;42.662;23.352;2023-07-08T01:29:34;95037.44;;;19.23;83.97
41078;BME280;26823;42.662;23.352;2023-07-08T01:31:59;95023.44;;;19.16;84.24
41078;BME280;26823;42.662;23.352;2023-07-08T01:34:31;95024.38;;;19.20;83.14
41078;BME280;26823;42.662;23.352;2023-07-08T01:36:58;95010.56;;;19.07;83.53
41078;BME280;26823;42.662;23.352;2023-07-08T01:39:26;95030.66;;;19.29;83.12
41078;BME280;26823;42.662;23.352;2023-07-08T01:41:51;95022.31;;;19.17;82.72
41078;BME280;26823;42.662;23.352;2023-07-08T01:44:32;95031.81;;;19.19;83.43
41078;BME280;26823;42.662;23.352;2023-07-08T01:47:08;95028.13;;;19.15;83.60
41078;BME280;26823;42.662;23.352;2023-07-08T01:49:37;95024.41;;;19.11;83.51
41078;BME280;26823;42.662;23.352;2023-07-08T01:52:05;95028.94;;;19.16;83.77
41078;BME280;26823;42.662;23.352;2023-07-08T01:54:31;95011.22;;;19.04;83.83
41078;BME280;26823;42.662;23.352;2023-07-08T01:56:57;95011.72;;;19.06;83.51
41078;BME280;26823;42.662;23.352;2023-07-08T01:59:23;95028.34;;;19.01;83.86
41078;BME280;26823;42.662;23.352;2023-07-08T02:01:50;95012.03;;;18.96;83.95
41078;BME280;26823;42.662;23.352;2023-07-08T02:04:20;95015.94;;;18.95;84.26
41078;BME280;26823;42.662;23.352;2023-07-08T02:06:53;95015.59;;;18.97;84.14
41078;BME280;26823;42.662;23.352;2023-07-08T02:09:19;95031.88;;;19.02;84.24
41078;BME280;26823;42.662;23.352;2023-07-08T02:11:44;95025.13;;;18.90;84.15
41078;BME280;26823;42.662;23.352;2023-07-08T02:14:10;95024.00;;;18.83;84.59
41078;BME280;26823;42.662;23.352;2023-07-08T02:16:35;95038.03;;;18.90;84.94
41078;BME280;26823;42.662;23.352;2023-07-08T02:19:00;95018.84;;;18.90;84.50
41078;BME280;26823;42.662;23.352;2023-07-08T02:21:26;95021.41;;;18.86;84.19
41078;BME280;26823;42.662;23.352;2023-07-08T02:23:51;95028.63;;;19.00;84.14
41078;BME280;26823;42.662;23.352;2023-07-08T02:26:17;95050.22;;;19.10;83.60
41078;BME280;26823;42.662;23.352;2023-07-08T02:28:42;95050.53;;;19.09;83.76
41078;BME280;26823;42.662;23.352;2023-07-08T02:31:07;95042.16;;;19.05;83.51
41078;BME280;26823;42.662;23.352;2023-07-08T02:33:33;95045.56;;;19.02;83.46
41078;BME280;26823;42.662;23.352;2023-07-08T02:36:01;95062.97;;;19.06;83.63
41078;BME280;26823;42.662;23.352;2023-07-08T02:38:27;95063.97;;;19.01;83.55
41078;BME280;26823;42.662;23.352;2023-07-08T02:40:52;95023.84;;;18.79;83.25
41078;BME280;26823;42.662;23.352;2023-07-08T02:43:17;95052.34;;;18.87;83.86
41078;BME280;26823;42.662;23.352;2023-07-08T02:45:43;95065.13;;;18.92;84.30
41078;BME280;26823;42.662;23.352;2023-07-08T02:48:08;95056.88;;;18.83;84.63
41078;BME280;26823;42.662;23.352;2023-07-08T02:50:34;95072.50;;;18.82;84.64
41078;BME280;26823;42.662;23.352;2023-07-08T02:52:59;95066.06;;;18.78;84.75
41078;BME280;26823;42.662;23.352;2023-07-08T02:55:24;95071.22;;;18.80;84.26
41078;BME280;26823;42.662;23.352;2023-07-08T02:57:50;95076.06;;;18.74;84.48
41078;BME280;26823;42.662;23.352;2023-07-08T03:00:15;95029.03;;;18.54;84.42
41078;BME280;26823;42.662;23.352;2023-07-08T03:02:40;95065.78;;;18.71;84.96
41078;BME280;26823;42.662;23.352;2023-07-08T03:05:06;95064.31;;;18.73;84.83
41078;BME280;26823;42.662;23.352;2023-07-08T03:07:32;95072.38;;;18.79;85.00
41078;BME280;26823;42.662;23.352;2023-07-08T03:09:57;95067.19;;;18.68;84.83
41078;BME280;26823;42.662;23.352;2023-07-08T03:12:22;95069.63;;;18.70;84.96
41078;BME280;26823;42.662;23.352;2023-07-08T03:14:48;95060.91;;;18.68;84.95
41078;BME280;26823;42.662;23.352;2023-07-08T03:17:13;95048.06;;;18.60;84.85
41078;BME280;26823;42.662;23.352;2023-07-08T03:19:40;95068.34;;;18.76;85.17
41078;BME280;26823;42.662;23.352;2023-07-08T03:22:05;95059.28;;;18.75;85.22
41078;BME280;26823;42.662;23.352;2023-07-08T03:24:33;95003.75;;;18.57;84.31
41078;BME280;26823;42.662;23.352;2023-07-08T03:26:58;95046.41;;;18.76;83.87
41078;BME280;26823;42.662;23.352;2023-07-08T03:29:25;95071.72;;;18.90;83.84
41078;BME280;26823;42.662;23.352;2023-07-08T03:31:51;95068.97;;;18.90;83.66
41078;BME280;26823;42.662;23.352;2023-07-08T03:34:17;95068.31;;;18.94;84.38
41078;BME280;26823;42.662;23.352;2023-07-08T03:36:48;95066.72;;;18.93;83.71
41078;BME280;26823;42.662;23.352;2023-07-08T03:39:18;95056.88;;;18.92;83.89
41078;BME280;26823;42.662;23.352;2023-07-08T03:41:44;95060.91;;;18.94;83.75
41078;BME280;26823;42.662;23.352;2023-07-08T03:44:10;95060.22;;;19.06;83.47
41078;BME280;26823;42.662;23.352;2023-07-08T03:46:35;95056.50;;;19.19;82.45
41078;BME280;26823;42.662;23.352;2023-07-08T03:49:00;95052.88;;;19.36;81.28
41078;BME280;26823;42.662;23.352;2023-07-08T03:51:30;95039.03;;;19.24;81.31
41078;BME280;26823;42.662;23.352;2023-07-08T03:53:57;95053.47;;;19.51;80.51
41078;BME280;26823;42.662;23.352;2023-07-08T03:56:23;95056.44;;;19.67;79.66
41078;BME280;26823;42.662;23.352;2023-07-08T03:58:49;95061.13;;;19.66;79.40
41078;BME280;26823;42.662;23.352;2023-07-08T04:01:17;95058.47;;;19.49;80.41
41078;BME280;26823;42.662;23.352;2023-07-08T04:03:43;95047.09;;;19.29;81.02
41078;BME280;26823;42.662;23.352;2023-07-08T04:06:09;95044.22;;;19.26;81.72
41078;BME280;26823;42.662;23.352;2023-07-08T04:08:34;95039.00;;;19.33;81.76
41078;BME280;26823;42.662;23.352;2023-07-08T04:10:59;95061.25;;;19.40;81.66
41078;BME280;26823;42.662;23.352;2023-07-08T04:13:25;95067.84;;;19.39;81.93
41078;BME280;26823;42.662;23.352;2023-07-08T04:15:55;95065.16;;;19.30;82.33
41078;BME280;26823;42.662;23.352;2023-07-08T04:18:21;95062.75;;;19.20;82.84
41078;BME280;26823;42.662;23.352;2023-07-08T04:20:47;95083.03;;;19.36;82.27
41078;BME280;26823;42.662;23.352;2023-07-08T04:23:18;95076.28;;;19.34;82.48
41078;BME280;26823;42.662;23.352;2023-07-08T04:25:44;95059.41;;;19.14;82.28
41078;BME280;26823;42.662;23.352;2023-07-08T04:28:10;95072.25;;;19.31;83.16
41078;BME280;26823;42.662;23.352;2023-07-08T04:30:35;95056.91;;;19.30;82.59
41078;BME280;26823;42.662;23.352;2023-07-08T04:33:12;95073.81;;;19.41;82.45
41078;BME280;26823;42.662;23.352;2023-07-08T04:35:39;95077.22;;;19.38;81.96
41078;BME280;26823;42.662;23.352;2023-07-08T04:38:06;95083.94;;;19.49;81.76
41078;BME280;26823;42.662;23.352;2023-07-08T04:40:35;95089.41;;;19.97;80.46
41078;BME280;26823;42.662;23.352;2023-07-08T04:43:06;95076.97;;;19.99;79.08
41078;BME280;26823;42.662;23.352;2023-07-08T04:45:31;95071.66;;;19.94;78.32
41078;BME280;26823;42.662;23.352;2023-07-08T04:47:57;95070.75;;;19.81;79.36
41078;BME280;26823;42.662;23.352;2023-07-08T04:50:22;95085.91;;;19.87;79.94
41078;BME280;26823;42.662;23.352;2023-07-08T04:52:48;95070.34;;;20.00;78.55
41078;BME280;26823;42.662;23.352;2023-07-08T04:55:15;95090.44;;;20.13;78.35
41078;BME280;26823;42.662;23.352;2023-07-08T04:57:41;95096.25;;;20.12;78.26
41078;BME280;26823;42.662;23.352;2023-07-08T05:00:07;95087.22;;;20.11;78.32
41078;BME280;26823;42.662;23.352;2023-07-08T05:02:33;95072.50;;;20.16;78.11
41078;BME280;26823;42.662;23.352;2023-07-08T05:04:58;95083.47;;;20.16;79.30
41078;BME280;26823;42.662;23.352;2023-07-08T05:07:23;95092.09;;;20.27;78.97
41078;BME280;26823;42.662;23.352;2023-07-08T05:09:49;95082.94;;;20.23;77.63
41078;BME280;26823;42.662;23.352;2023-07-08T05:12:14;95096.06;;;20.38;77.25
41078;BME280;26823;42.662;23.352;2023-07-08T05:14:39;95087.22;;;20.32;77.19
41078;BME280;26823;42.662;23.352;2023-07-08T05:17:08;95103.31;;;20.43;76.81
41078;BME280;26823;42.662;23.352;2023-07-08T05:19:34;95101.69;;;20.42;76.36
41078;BME280;26823;42.662;23.352;2023-07-08T05:21:59;95104.94;;;20.44;76.88
41078;BME280;26823;42.662;23.352;2023-07-08T05:24:25;95088.44;;;20.44;76.31
41078;BME280;26823;42.662;23.352;2023-07-08T05:26:50;95104.78;;;20.61;76.42
41078;BME280;26823;42.662;23.352;2023-07-08T05:29:16;95111.97;;;20.53;76.29
41078;BME280;26823;42.662;23.352;2023-07-08T05:31:41;95112.81;;;20.24;77.20
41078;BME280;26823;42.662;23.352;2023-07-08T05:34:06;95103.53;;;20.08;77.16
41078;BME280;26823;42.662;23.352;2023-07-08T05:36:32;95117.56;;;20.15;77.78
41078;BME280;26823;42.662;23.352;2023-07-08T05:38:57;95110.63;;;20.09;78.04
41078;BME280;26823;42.662;23.352;2023-07-08T05:41:22;95113.25;;;20.05;79.36
41078;BME280;26823;42.662;23.352;2023-07-08T05:43:48;95102.00;;;19.98;78.59
41078;BME280;26823;42.662;23.352;2023-07-08T05:46:13;95095.09;;;19.92;79.36
41078;BME280;26823;42.662;23.352;2023-07-08T05:48:39;95115.78;;;20.10;79.74
41078;BME280;26823;42.662;23.352;2023-07-08T05:51:05;95126.91;;;20.44;76.51
41078;BME280;26823;42.662;23.352;2023-07-08T05:53:30;95112.63;;;20.50;76.11
41078;BME280;26823;42.662;23.352;2023-07-08T05:55:55;95066.41;;;20.31;75.45
41078;BME280;26823;42.662;23.352;2023-07-08T05:58:21;95128.72;;;20.82;75.59
41078;BME280;26823;42.662;23.352;2023-07-08T06:00:47;95117.06;;;20.85;74.42
41078;BME280;26823;42.662;23.352;2023-07-08T06:03:12;95096.78;;;20.68;74.64
41078;BME280;26823;42.662;23.352;2023-07-08T06:05:38;95136.09;;;20.90;74.64
41078;BME280;26823;42.662;23.352;2023-07-08T06:08:06;95096.78;;;20.68;75.18
41078;BME280;26823;42.662;23.352;2023-07-08T06:10:41;95129.78;;;20.90;74.56
41078;BME280;26823;42.662;23.352;2023-07-08T06:13:07;95134.56;;;20.80;75.33
41078;BME280;26823;42.662;23.352;2023-07-08T06:15:32;95144.66;;;20.67;75.30
41078;BME280;26823;42.662;23.352;2023-07-08T06:17:58;95139.69;;;20.61;75.08
41078;BME280;26823;42.662;23.352;2023-07-08T06:20:27;95145.28;;;20.73;74.94
41078;BME280;26823;42.662;23.352;2023-07-08T06:22:53;95148.19;;;20.77;74.50
41078;BME280;26823;42.662;23.352;2023-07-08T06:25:18;95139.47;;;20.66;74.20
41078;BME280;26823;42.662;23.352;2023-07-08T06:27:44;95148.66;;;20.79;73.76
41078;BME280;26823;42.662;23.352;2023-07-08T06:30:09;95145.81;;;20.66;74.00
41078;BME280;26823;42.662;23.352;2023-07-08T06:32:35;95155.63;;;20.76;73.86
41078;BME280;26823;42.662;23.352;2023-07-08T06:35:00;95144.28;;;20.78;73.23
41078;BME280;26823;42.662;23.352;2023-07-08T06:37:26;95155.22;;;20.87;71.97
41078;BME280;26823;42.662;23.352;2023-07-08T06:39:51;95147.69;;;20.75;72.55
41078;BME280;26823;42.662;23.352;2023-07-08T06:42:16;95098.50;;;20.40;72.48
41078;BME280;26823;42.662;23.352;2023-07-08T06:44:42;95144.19;;;20.65;72.81
41078;BME280;26823;42.662;23.352;2023-07-08T06:47:16;95142.22;;;20.66;73.36
41078;BME280;26823;42.662;23.352;2023-07-08T06:49:41;95127.84;;;20.69;72.85
41078;BME280;26823;42.662;23.352;2023-07-08T06:52:07;95139.84;;;20.85;72.27
41078;BME280;26823;42.662;23.352;2023-07-08T06:54:32;95140.44;;;20.91;71.77
41078;BME280;26823;42.662;23.352;2023-07-08T06:56:58;95135.97;;;20.87;71.41
41078;BME280;26823;42.662;23.352;2023-07-08T06:59:23;95151.78;;;20.90;71.53
41078;BME280;26823;42.662;23.352;2023-07-08T07:01:48;95151.78;;;20.90;71.64
41078;BME280;26823;42.662;23.352;2023-07-08T07:04:14;95121.16;;;20.79;71.55
41078;BME280;26823;42.662;23.352;2023-07-08T07:06:39;95136.56;;;20.92;70.09
41078;BME280;26823;42.662;23.352;2023-07-08T07:09:04;95154.66;;;21.14;68.74
41078;BME280;26823;42.662;23.352;2023-07-08T07:11:30;95133.91;;;21.17;68.76
41078;BME280;26823;42.662;23.352;2023-07-08T07:13:55;95123.41;;;21.31;68.92
41078;BME280;26823;42.662;23.352;2023-07-08T07:16:21;95160.13;;;21.48;67.47
41078;BME280;26823;42.662;23.352;2023-07-08T07:18:46;95125.97;;;21.49;67.31
41078;BME280;26823;42.662;23.352;2023-07-08T07:21:11;95151.84;;;21.69;65.72
41078;BME280;26823;42.662;23.352;2023-07-08T07:23:37;95155.41;;;21.82;65.96
41078;BME280;26823;42.662;23.352;2023-07-08T07:26:02;95170.91;;;21.87;66.13
41078;BME280;26823;42.662;23.352;2023-07-08T07:28:28;95143.91;;;21.80;65.50
41078;BME280;26823;42.662;23.352;2023-07-08T07:30:57;95159.91;;;21.99;65.34
41078;BME280;26823;42.662;23.352;2023-07-08T07:33:23;95153.81;;;22.06;64.58
41078;BME280;26823;42.662;23.352;2023-07-08T07:35:49;95167.81;;;22.25;64.67
41078;BME280;26823;42.662;23.352;2023-07-08T07:38:15;95164.25;;;22.12;64.50
41078;BME280;26823;42.662;23.352;2023-07-08T07:40:41;95179.16;;;22.24;64.34
41078;BME280;26823;42.662;23.352;2023-07-08T07:43:07;95182.50;;;22.29;63.58
41078;BME280;26823;42.662;23.352;2023-07-08T07:45:32;95162.41;;;22.29;63.38
41078;BME280;26823;42.662;23.352;2023-07-08T07:47:57;95161.38;;;22.34;62.73
41078;BME280;26823;42.662;23.352;2023-07-08T07:50:23;95172.44;;;22.46;63.24
41078;BME280;26823;42.662;23.352;2023-07-08T07:52:48;95175.38;;;22.66;62.23
41078;BME280;26823;42.662;23.352;2023-07-08T07:55:14;95185.94;;;22.63;61.09
41078;BME280;26823;42.662;23.352;2023-07-08T07:57:39;95181.66;;;22.66;60.96
41078;BME280;26823;42.662;23.352;2023-07-08T08:00:07;95168.72;;;22.54;60.54
41078;BME280;26823;42.662;23.352;2023-07-08T08:02:34;95175.16;;;22.58;62.77
41078;BME280;26823;42.662;23.352;2023-07-08T08:04:59;95169.44;;;22.51;62.24
41078;BME280;26823;42.662;23.352;2023-07-08T08:07:25;95179.13;;;22.73;62.44
41078;BME280;26823;42.662;23.352;2023-07-08T08:09:50;95169.94;;;22.82;61.65
41078;BME280;26823;42.662;23.352;2023-07-08T08:12:15;95135.78;;;22.58;61.83
41078;BME280;26823;42.662;23.352;2023-07-08T08:14:41;95181.09;;;22.85;61.63
41078;BME280;26823;42.662;23.352;2023-07-08T08:17:06;95181.38;;;22.96;60.23
41078;BME280;26823;42.662;23.352;2023-07-08T08:19:32;95165.09;;;22.91;59.36
41078;BME280;26823;42.662;23.352;2023-07-08T08:21:57;95176.34;;;22.98;60.06
41078;BME280;26823;42.662;23.352;2023-07-08T08:24:23;95178.28;;;22.97;60.15
41078;BME280;26823;42.662;23.352;2023-07-08T08:26:48;95170.00;;;22.97;61.14
41078;BME280;26823;42.662;23.352;2023-07-08T08:29:13;95174.13;;;23.04;60.12
41078;BME280;26823;42.662;23.352;2023-07-08T08:31:39;95166.41;;;23.09;60.02
41078;BME280;26823;42.662;23.352;2023-07-08T08:34:04;95174.22;;;23.07;59.70
41078;BME280;26823;42.662;23.352;2023-07-08T08:36:30;95163.88;;;23.17;61.23
41078;BME280;26823;42.662;23.352;2023-07-08T08:38:55;95171.09;;;23.21;61.33
41078;BME280;26823;42.662;23.352;2023-07-08T08:41:32;95160.59;;;23.27;59.07
41078;BME280;26823;42.662;23.352;2023-07-08T08:43:58;95170.31;;;23.21;59.39
41078;BME280;26823;42.662;23.352;2023-07-08T08:46:36;95170.16;;;23.29;59.53
41078;BME280;26823;42.662;23.352;2023-07-08T08:49:21;95173.97;;;23.41;59.73
41078;BME280;26823;42.662;23.352;2023-07-08T08:51:50;95169.13;;;23.50;58.96
41078;BME280;26823;42.662;23.352;2023-07-08T08:54:16;95163.59;;;23.50;58.44
41078;BME280;26823;42.662;23.352;2023-07-08T09:01:57;95169.13;;;23.50;58.39
41078;BME280;26823;42.662;23.352;2023-07-08T09:04:28;95157.81;;;23.55;58.74
41078;BME280;26823;42.662;23.352;2023-07-08T09:07:08;95157.66;;;23.64;59.01
41078;BME280;26823;42.662;23.352;2023-07-08T09:09:47;95169.94;;;23.83;58.76
41078;BME280;26823;42.662;23.352;2023-07-08T09:12:19;95166.94;;;23.88;57.24
41078;BME280;26823;42.662;23.352;2023-07-08T09:14:46;95167.47;;;23.77;57.44
41078;BME280;26823;42.662;23.352;2023-07-08T09:17:30;95132.00;;;23.64;58.14
41078;BME280;26823;42.662;23.352;2023-07-08T09:25:01;95154.72;;;23.89;56.77
41078;BME280;26823;42.662;23.352;2023-07-08T09:27:28;95145.03;;;23.95;55.91
41078;BME280;26823;42.662;23.352;2023-07-08T09:29:54;95140.84;;;24.01;58.23
41078;BME280;26823;42.662;23.352;2023-07-08T09:32:24;95152.88;;;24.09;56.85
41078;BME280;26823;42.662;23.352;2023-07-08T09:35:06;95145.56;;;24.17;56.89
41078;BME280;26823;42.662;23.352;2023-07-08T09:37:38;95141.69;;;24.02;54.79
41078;BME280;26823;42.662;23.352;2023-07-08T09:42:42;95134.19;;;24.02;55.82
41078;BME280;26823;42.662;23.352;2023-07-08T09:45:13;95137.47;;;24.08;56.29
41078;BME280;26823;42.662;23.352;2023-07-08T09:47:39;95140.41;;;24.15;55.09
41078;BME280;26823;42.662;23.352;2023-07-08T09:52:49;95133.19;;;24.10;54.39
41078;BME280;26823;42.662;23.352;2023-07-08T09:55:15;95129.25;;;24.12;54.56
41078;BME280;26823;42.662;23.352;2023-07-08T09:57:43;95120.63;;;24.13;54.78
41078;BME280;26823;42.662;23.352;2023-07-08T10:00:16;95136.94;;;24.18;55.87
41078;BME280;26823;42.662;23.352;2023-07-08T10:02:46;95136.47;;;24.32;55.58
41078;BME280;26823;42.662;23.352;2023-07-08T10:05:27;95134.22;;;24.38;54.46
41078;BME280;26823;42.662;23.352;2023-07-08T10:07:56;95125.06;;;24.34;53.61
41078;BME280;26823;42.662;23.352;2023-07-08T10:10:34;95125.19;;;24.41;54.14
41078;BME280;26823;42.662;23.352;2023-07-08T10:13:02;95118.44;;;24.38;54.61
41078;BME280;26823;42.662;23.352;2023-07-08T10:15:37;95116.03;;;24.37;55.16
41078;BME280;26823;42.662;23.352;2023-07-08T10:18:10;95115.13;;;24.49;53.50
41078;BME280;26823;42.662;23.352;2023-07-08T10:23:38;95120.72;;;24.52;52.99
41078;BME280;26823;42.662;23.352;2023-07-08T10:26:17;95099.69;;;24.48;53.12
41078;BME280;26823;42.662;23.352;2023-07-08T10:36:30;95116.69;;;24.66;53.37
41078;BME280;26823;42.662;23.352;2023-07-08T10:39:33;95109.06;;;24.79;51.12
41078;BME280;26823;42.662;23.352;2023-07-08T10:45:32;95093.84;;;24.69;52.17
41078;BME280;26823;42.662;23.352;2023-07-08T10:56:35;95076.75;;;25.02;49.92
41078;BME280;26823;42.662;23.352;2023-07-08T11:04:58;95067.91;;;25.16;50.09
41078;BME280;26823;42.662;23.352;2023-07-08T11:07:34;95060.22;;;25.06;51.60
41078;BME280;26823;42.662;23.352;2023-07-08T11:12:47;95083.72;;;25.16;49.53
41078;BME280;26823;42.662;23.352;2023-07-08T11:15:23;95063.47;;;25.12;50.19
41078;BME280;26823;42.662;23.352;2023-07-08T11:21:04;95066.88;;;25.24;49.13
41078;BME280;26823;42.662;23.352;2023-07-08T11:23:38;95059.53;;;25.32;48.85
41078;BME280;26823;42.662;23.352;2023-07-08T11:26:26;95065.13;;;25.36;49.32
41078;BME280;26823;42.662;23.352;2023-07-08T11:28:57;95064.31;;;25.35;47.89
41078;BME280;26823;42.662;23.352;2023-07-08T11:31:24;95053.34;;;25.39;48.09
41078;BME280;26823;42.662;23.352;2023-07-08T11:33:52;95049.34;;;25.36;49.41
41078;BME280;26823;42.662;23.352;2023-07-08T11:36:19;95055.47;;;25.49;48.37
41078;BME280;26823;42.662;23.352;2023-07-08T11:39:28;95067.59;;;25.64;46.61
41078;BME280;26823;42.662;23.352;2023-07-08T11:45:23;95053.16;;;25.51;47.39
41078;BME280;26823;42.662;23.352;2023-07-08T11:47:49;95060.78;;;25.58;47.78
41078;BME280;26823;42.662;23.352;2023-07-08T11:50:31;95054.13;;;25.63;47.64
41078;BME280;26823;42.662;23.352;2023-07-08T11:53:01;95061.81;;;25.73;47.83
41078;BME280;26823;42.662;23.352;2023-07-08T11:55:47;95065.44;;;25.77;49.21
41078;BME280;26823;42.662;23.352;2023-07-08T11:58:22;95028.34;;;25.59;47.28
41078;BME280;26823;42.662;23.352;2023-07-08T12:03:48;95034.38;;;25.41;48.08
41078;BME280;26823;42.662;23.352;2023-07-08T12:08:53;95072.34;;;25.40;48.89
41078;BME280;26823;42.662;23.352;2023-07-08T12:11:31;95044.88;;;25.32;48.26
41078;BME280;26823;42.662;23.352;2023-07-08T12:14:01;95057.03;;;25.47;47.03
41078;BME280;26823;42.662;23.352;2023-07-08T12:16:29;95058.19;;;25.46;47.55
41078;BME280;26823;42.662;23.352;2023-07-08T12:18:55;95030.66;;;25.33;46.59
41078;BME280;26823;42.662;23.352;2023-07-08T12:21:23;95071.97;;;25.42;47.81
41078;BME280;26823;42.662;23.352;2023-07-08T12:23:51;95039.31;;;25.32;47.94
41078;BME280;26823;42.662;23.352;2023-07-08T12:26:16;95053.59;;;25.34;47.63
41078;BME280;26823;42.662;23.352;2023-07-08T12:28:42;95051.16;;;25.29;47.21
41078;BME280;26823;42.662;23.352;2023-07-08T12:31:20;95054.69;;;25.29;47.71
41078;BME280;26823;42.662;23.352;2023-07-08T12:33:46;95030.41;;;25.19;47.97
41078;BME280;26823;42.662;23.352;2023-07-08T12:36:20;95044.09;;;25.12;47.44
41078;BME280;26823;42.662;23.352;2023-07-08T12:38:48;95046.38;;;25.06;47.58
41078;BME280;26823;42.662;23.352;2023-07-08T12:41:19;95025.03;;;25.06;48.40
41078;BME280;26823;42.662;23.352;2023-07-08T12:43:46;95051.16;;;25.29;47.43
41078;BME280;26823;42.662;23.352;2023-07-08T12:46:14;95044.44;;;25.30;46.12
41078;BME280;26823;42.662;23.352;2023-07-08T12:48:40;95042.47;;;25.30;47.34
41078;BME280;26823;42.662;23.352;2023-07-08T12:51:14;95036.56;;;25.32;46.74
41078;BME280;26823;42.662;23.352;2023-07-08T12:53:42;95041.97;;;25.24;48.37
41078;BME280;26823;42.662;23.352;2023-07-08T12:56:07;95039.63;;;25.27;48.02
41078;BME280;26823;42.662;23.352;2023-07-08T12:58:45;95047.69;;;25.35;47.52
41078;BME280;26823;42.662;23.352;2023-07-08T13:01:19;95016.88;;;25.14;46.84
41078;BME280;26823;42.662;23.352;2023-07-08T13:03:48;95044.78;;;25.28;48.01
41078;BME280;26823;42.662;23.352;2023-07-08T13:06:16;95032.56;;;25.29;47.55
41078;BME280;26823;42.662;23.352;2023-07-08T13:08:43;95050.41;;;25.32;48.17
41078;BME280;26823;42.662;23.352;2023-07-08T13:11:13;95034.91;;;25.27;48.42
41078;BME280;26823;42.662;23.352;2023-07-08T13:13:47;95051.28;;;25.36;47.90
41078;BME280;26823;42.662;23.352;2023-07-08T13:16:14;95028.94;;;25.25;48.56
41078;BME280;26823;42.662;23.352;2023-07-08T13:18:41;95046.03;;;25.31;47.94
41078;BME280;26823;42.662;23.352;2023-07-08T13:21:10;95057.91;;;25.31;47.80
41078;BME280;26823;42.662;23.352;2023-07-08T13:23:37;95039.94;;;25.21;47.56
41078;BME280;26823;42.662;23.352;2023-07-08T13:26:15;95053.72;;;25.37;47.73
41078;BME280;26823;42.662;23.352;2023-07-08T13:28:41;95055.66;;;25.37;47.65
41078;BME280;26823;42.662;23.352;2023-07-08T13:31:23;95044.22;;;25.38;47.06
41078;BME280;26823;42.662;23.352;2023-07-08T13:33:50;95039.91;;;25.41;46.50
41078;BME280;26823;42.662;23.352;2023-07-08T13:36:18;95043.13;;;25.43;47.01
41078;BME280;26823;42.662;23.352;2023-07-08T13:38:45;95039.25;;;25.48;47.61
41078;BME280;26823;42.662;23.352;2023-07-08T13:41:10;95045.16;;;25.46;46.82
41078;BME280;26823;42.662;23.352;2023-07-08T13:43:43;95036.63;;;25.35;46.83
41078;BME280;26823;42.662;23.352;2023-07-08T13:46:33;95053.53;;;25.30;47.43
41078;BME280;26823;42.662;23.352;2023-07-08T13:51:50;95053.81;;;25.02;48.64
41078;BME280;26823;42.662;23.352;2023-07-08T13:54:23;95048.78;;;25.07;49.04
41078;BME280;26823;42.662;23.352;2023-07-08T13:56:49;95035.25;;;25.02;48.67
41078;BME280;26823;42.662;23.352;2023-07-08T13:59:19;95042.63;;;25.18;48.26
41078;BME280;26823;42.662;23.352;2023-07-08T14:01:44;95028.72;;;25.14;48.33